Time;durP1;ratioP1;P1;durP2;ratioP2;P2;SDS_P1;SDS_P2;PMS_P1;PMS_P2;Temp;Humidity;BMP_temperature;BMP_pressure;BME280_temperature;BME280_humidity;BME280_pressure;Samples;Min_cycle;Max_cycle;Signal;HPM_P1;HPM_P2
2022/10/06 00:00:26;;;;;;;;;;;;;;;;;;4967556;28;20055;-80
2022/10/06 00:02:51;;;;;;;9.63;6.07;;;;;;;;;;4967264;28;19918;-81
2022/10/06 00:05:17;;;;;;;;;;;;;;;;;;4963631;28;20058;-80
2022/10/06 00:07:42;;;;;;;8.88;5.95;;;;;;;;;;4990559;28;20285;-79
2022/10/06 00:10:08;;;;;;;9.02;6.35;;;;;;;;;;4969350;28;20035;-80
2022/10/06 00:12:52;;;;;;;7.25;5.90;;;;;;;;;;4977735;28;20050;-80
2022/10/06 00:15:19;;;;;;;12.85;7.03;;;;;;;;;;4972521;28;20038;-79
2022/10/06 00:17:45;;;;;;;8.40;6.20;;;;;;;;;;4973655;28;20022;-80
2022/10/06 00:20:10;;;;;;;;;;;;;;;;;;4971150;28;20069;-80
2022/10/06 00:22:40;;;;;;;11.35;6.78;;;;;;;;;;4972116;28;20028;-81
2022/10/06 00:25:06;;;;;;;8.90;7.00;;;;;;;;;;4971820;28;20038;-80
2022/10/06 00:27:35;;;;;;;10.15;6.75;;;;;;;;;;4954805;28;20458;-81
2022/10/06 00:30:01;;;;;;;8.40;6.88;;;;;;;;;;4963249;28;20407;-81
2022/10/06 00:32:27;;;;;;;10.90;7.20;;;;;;;;;;4985115;28;20023;-80
2022/10/06 00:34:52;;;;;;;;;;;;;;;;;;4964506;28;20086;-80
2022/10/06 00:37:18;;;;;;;11.80;7.47;;;;;;;;;;4958532;28;20293;-80
2022/10/06 00:39:44;;;;;;;;;;;;;;;;;;4986966;28;20113;-80
2022/10/06 00:42:22;;;;;;;10.65;7.45;;;;;;;;;;4965317;28;19956;-80
2022/10/06 00:44:48;;;;;;;11.82;7.40;;;;;;;;;;4954786;28;20038;-79
2022/10/06 00:47:14;;;;;;;12.88;7.60;;;;;;;;;;4947769;28;20118;-80
2022/10/06 00:49:39;;;;;;;;;;;;;;;;;;4976789;28;20387;-79
2022/10/06 00:52:09;;;;;;;12.40;6.65;;;;;;;;;;4974516;28;20362;-81
2022/10/06 00:54:35;;;;;;;9.57;7.53;;;;;;;;;;4969948;28;20406;-76
2022/10/06 00:57:01;;;;;;;10.80;8.18;;;;;;;;;;4958509;28;20031;-79
2022/10/06 00:59:26;;;;;;;11.30;7.53;;;;;;;;;;4955833;28;20031;-77
2022/10/06 01:02:15;;;;;;;11.55;7.97;;;;;;;;;;4943303;28;20553;-79
2022/10/06 01:04:41;;;;;;;13.68;7.97;;;;;;;;;;4954228;28;20045;-78
2022/10/06 01:07:06;;;;;;;;;;;;;;;;;;4968445;28;20035;-78
2022/10/06 01:09:32;;;;;;;10.48;8.15;;;;;;;;;;4955143;28;20500;-76
2022/10/06 01:11:58;;;;;;;13.63;7.72;;;;;;;;;;4946621;28;20030;-77
2022/10/06 01:14:25;;;;;;;13.57;8.10;;;;;;;;;;4971318;28;20562;-76
2022/10/06 01:16:50;;;;;;;;;;;;;;;;;;4957629;28;20046;-77
2022/10/06 01:19:25;;;;;;;12.15;8.23;;;;;;;;;;4958643;28;20274;-79
2022/10/06 01:21:52;;;;;;;10.83;7.97;;;;;;;;;;4976815;28;20085;-77
2022/10/06 01:24:17;;;;;;;;;;;;;;;;;;4959174;28;20527;-77
2022/10/06 01:26:43;;;;;;;9.88;7.90;;;;;;;;;;4968426;28;19914;-77
2022/10/06 01:29:09;;;;;;;;;;;;;;;;;;4955476;28;20031;-77
2022/10/06 01:31:35;;;;;;;10.18;8.25;;;;;;;;;;4969866;28;19921;-77
2022/10/06 01:34:00;;;;;;;9.77;8.18;;;;;;;;;;4955208;28;20074;-77
2022/10/06 01:36:27;;;;;;;11.05;7.57;;;;;;;;;;4955008;28;20035;-77
2022/10/06 01:38:52;;;;;;;11.75;7.93;;;;;;;;;;4982957;28;20041;-77
2022/10/06 01:41:18;;;;;;;9.73;8.02;;;;;;;;;;4957300;28;20031;-77
2022/10/06 01:43:45;;;;;;;9.65;7.88;;;;;;;;;;4971184;28;20090;-77
2022/10/06 01:46:11;;;;;;;;;;;;;;;;;;4949366;29;20047;-77
2022/10/06 01:48:38;;;;;;;10.20;8.02;;;;;;;;;;4985943;28;19914;-77
2022/10/06 01:51:04;;;;;;;10.98;8.52;;;;;;;;;;4976480;28;20046;-77
2022/10/06 01:53:30;;;;;;;;;;;;;;;;;;4983366;28;20039;-77
2022/10/06 01:55:58;;;;;;;14.07;8.23;;;;;;;;;;4972426;28;19909;-77
2022/10/06 01:58:25;;;;;;;14.55;8.82;;;;;;;;;;4948910;28;20031;-77
2022/10/06 02:00:51;;;;;;;11.63;8.60;;;;;;;;;;4973106;28;20019;-77
2022/10/06 02:03:16;;;;;;;;;;;;;;;;;;4948687;28;20492;-76
2022/10/06 02:05:42;;;;;;;14.98;9.25;;;;;;;;;;4973133;28;19910;-77
2022/10/06 02:08:08;;;;;;;13.98;9.27;;;;;;;;;;4969957;28;20031;-77
2022/10/06 02:10:34;;;;;;;11.93;9.05;;;;;;;;;;4972838;28;20038;-77
2022/10/06 02:13:03;;;;;;;12.85;9.35;;;;;;;;;;4966661;28;20114;-77
2022/10/06 02:15:32;;;;;;;11.60;9.38;;;;;;;;;;4984482;28;20033;-77
2022/10/06 02:17:57;;;;;;;12.68;8.90;;;;;;;;;;4980496;28;20168;-77
2022/10/06 02:20:25;;;;;;;13.77;9.40;;;;;;;;;;4957063;28;20034;-78
2022/10/06 02:22:51;;;;;;;;;;;;;;;;;;4969745;28;20042;-76
2022/10/06 02:25:16;;;;;;;14.35;9.70;;;;;;;;;;4940985;28;19910;-77
2022/10/06 02:27:43;;;;;;;13.77;8.98;;;;;;;;;;4969784;28;20035;-77
2022/10/06 02:30:11;;;;;;;17.42;10.23;;;;;;;;;;4945212;28;20031;-77
2022/10/06 02:32:38;;;;;;;13.70;9.98;;;;;;;;;;4964658;28;20071;-77
2022/10/06 02:35:05;;;;;;;15.02;10.15;;;;;;;;;;4969642;28;20066;-77
2022/10/06 02:37:31;;;;;;;14.00;9.85;;;;;;;;;;4967105;28;20035;-77
2022/10/06 02:39:59;;;;;;;15.73;9.77;;;;;;;;;;4956404;28;20026;-77
2022/10/06 02:42:24;;;;;;;;;;;;;;;;;;4947847;29;20037;-77
2022/10/06 02:44:51;;;;;;;14.60;9.35;;;;;;;;;;4955670;28;19910;-77
2022/10/06 02:47:17;;;;;;;15.75;9.38;;;;;;;;;;4957559;28;20034;-77
2022/10/06 02:49:43;;;;;;;16.75;11.07;;;;;;;;;;4974879;28;20409;-77
2022/10/06 02:52:10;;;;;;;;;;;;;;;;;;4969175;28;20065;-77
2022/10/06 02:54:35;;;;;;;15.48;10.18;;;;;;;;;;4990904;28;20392;-76
2022/10/06 02:57:01;;;;;;;;;;;;;;;;;;4958823;28;20062;-77
2022/10/06 02:59:26;;;;;;;16.40;10.07;;;;;;;;;;4989830;28;19909;-77
2022/10/06 03:01:52;;;;;;;14.18;9.90;;;;;;;;;;4968877;28;20030;-77
2022/10/06 03:04:17;;;;;;;14.98;10.25;;;;;;;;;;4971418;28;20035;-77
2022/10/06 03:06:43;;;;;;;16.05;10.48;;;;;;;;;;4955794;28;20120;-77
2022/10/06 03:09:20;;;;;;;15.15;10.55;;;;;;;;;;4977738;28;20051;-77
2022/10/06 03:11:46;;;;;;;;;;;;;;;;;;4986722;28;20522;-77
2022/10/06 03:14:16;;;;;;;16.73;10.35;;;;;;;;;;4991994;28;19914;-77
2022/10/06 03:16:42;;;;;;;;;;;;;;;;;;4971181;28;20061;-77
2022/10/06 03:19:13;;;;;;;15.40;10.65;;;;;;;;;;4981710;28;19964;-77
2022/10/06 03:21:41;;;;;;;15.65;10.90;;;;;;;;;;4972017;28;20031;-78
2022/10/06 03:24:07;;;;;;;;;;;;;;;;;;4972777;28;20502;-78
2022/10/06 03:26:33;;;;;;;15.80;10.18;;;;;;;;;;4992472;28;19914;-77
2022/10/06 03:28:59;;;;;;;17.95;10.95;;;;;;;;;;4992115;28;20454;-77
2022/10/06 03:31:25;;;;;;;;;;;;;;;;;;4970474;28;20038;-77
2022/10/06 03:33:51;;;;;;;16.77;10.82;;;;;;;;;;4989933;28;19922;-77
2022/10/06 03:36:17;;;;;;;19.98;11.68;;;;;;;;;;4971138;28;20031;-79
2022/10/06 03:38:43;;;;;;;15.10;11.20;;;;;;;;;;4955972;28;20081;-78
2022/10/06 03:41:08;;;;;;;;;;;;;;;;;;4986941;28;20034;-78
2022/10/06 03:43:34;;;;;;;16.58;11.80;;;;;;;;;;4982879;28;19917;-78
2022/10/06 03:45:59;;;;;;;;;;;;;;;;;;4962310;28;20042;-78
2022/10/06 03:48:26;;;;;;;16.17;11.80;;;;;;;;;;4992391;28;20016;-77
2022/10/06 03:50:55;;;;;;;22.23;11.20;;;;;;;;;;4962422;28;20046;-78
2022/10/06 03:53:26;;;;;;;19.63;11.82;;;;;;;;;;4959700;28;20031;-77
2022/10/06 03:55:59;;;;;;;16.55;11.18;;;;;;;;;;4961064;28;20043;-78
2022/10/06 03:58:25;;;;;;;16.85;12.52;;;;;;;;;;4989909;28;20502;-77
2022/10/06 04:00:50;;;;;;;;;;;;;;;;;;4977888;28;20371;-79
2022/10/06 04:03:18;;;;;;;20.50;12.57;;;;;;;;;;4979866;28;19914;-79
2022/10/06 04:05:56;;;;;;;18.52;13.07;;;;;;;;;;4990137;28;20057;-77
2022/10/06 04:08:23;;;;;;;20.75;12.10;;;;;;;;;;4964589;28;20118;-78
2022/10/06 04:10:49;;;;;;;;;;;;;;;;;;4961226;28;20513;-78
2022/10/06 04:13:16;;;;;;;22.02;13.80;;;;;;;;;;4979812;28;19922;-78
2022/10/06 04:15:41;;;;;;;25.23;13.18;;;;;;;;;;4983182;28;20027;-77
2022/10/06 04:18:07;;;;;;;;;;;;;;;;;;4975191;28;20389;-78
2022/10/06 04:20:33;;;;;;;23.80;13.73;;;;;;;;;;4977425;28;19996;-78
2022/10/06 04:22:58;;;;;;;23.13;13.38;;;;;;;;;;4969276;28;20034;-78
2022/10/06 04:25:24;;;;;;;18.48;13.57;;;;;;;;;;4942862;28;20058;-77
2022/10/06 04:27:50;;;;;;;22.27;14.68;;;;;;;;;;4969752;28;20038;-77
2022/10/06 04:30:15;;;;;;;21.55;15.10;;;;;;;;;;4971529;28;20118;-78
2022/10/06 04:32:42;;;;;;;21.98;15.38;;;;;;;;;;4992445;28;20034;-77
2022/10/06 04:35:08;;;;;;;;;;;;;;;;;;4962659;28;20049;-78
2022/10/06 04:37:34;;;;;;;26.25;15.32;;;;;;;;;;4982477;28;19917;-76
2022/10/06 04:40:00;;;;;;;21.50;15.02;;;;;;;;;;4982499;28;20022;-76
2022/10/06 04:42:28;;;;;;;22.27;15.20;;;;;;;;;;4966475;28;20082;-76
2022/10/06 04:44:54;;;;;;;22.00;15.35;;;;;;;;;;4975591;28;20026;-77
2022/10/06 04:47:19;;;;;;;;;;;;;;;;;;4954681;28;20030;-76
2022/10/06 04:49:45;;;;;;;24.60;15.30;;;;;;;;;;4984015;28;19929;-78
2022/10/06 04:52:12;;;;;;;23.98;15.88;;;;;;;;;;4972338;28;20049;-79
2022/10/06 04:54:39;;;;;;;27.42;16.27;;;;;;;;;;4977022;28;20113;-77
2022/10/06 04:57:07;;;;;;;23.80;16.73;;;;;;;;;;4958361;28;20027;-78
2022/10/06 05:02:18;;;;;;;26.45;17.40;;;;;;;;;;4986981;28;20278;-78
2022/10/06 05:04:45;;;;;;;26.13;17.20;;;;;;;;;;4959722;28;20033;-78
2022/10/06 05:07:12;;;;;;;28.33;17.30;;;;;;;;;;4964567;28;20031;-78
2022/10/06 05:09:37;;;;;;;;;;;;;;;;;;4943547;28;20118;-78
2022/10/06 05:12:03;;;;;;;26.40;16.15;;;;;;;;;;4983737;28;19925;-79
2022/10/06 05:14:32;;;;;;;25.80;16.35;;;;;;;;;;4966515;28;20133;-78
2022/10/06 05:16:58;;;;;;;30.38;16.60;;;;;;;;;;4959645;28;20034;-77
2022/10/06 05:19:24;;;;;;;29.45;17.02;;;;;;;;;;4948769;28;20026;-78
2022/10/06 05:21:50;;;;;;;26.92;16.13;;;;;;;;;;4963135;28;20117;-77
2022/10/06 05:24:20;;;;;;;23.40;15.75;;;;;;;;;;4945322;28;20034;-77
2022/10/06 05:26:46;;;;;;;23.60;15.40;;;;;;;;;;4958372;28;20034;-78
2022/10/06 05:29:13;;;;;;;23.45;15.52;;;;;;;;;;4991303;28;20034;-79
2022/10/06 05:31:41;;;;;;;;;;;;;;;;;;4977371;28;20054;-78
2022/10/06 05:34:07;;;;;;;22.30;15.00;;;;;;;;;;4965774;28;19922;-77
2022/10/06 05:36:33;;;;;;;21.23;15.05;;;;;;;;;;4986289;28;20220;-79
2022/10/06 05:39:00;;;;;;;21.75;14.55;;;;;;;;;;4948830;28;20026;-79
2022/10/06 05:41:29;;;;;;;20.25;13.95;;;;;;;;;;4962515;28;20065;-79
2022/10/06 05:43:57;;;;;;;18.23;11.98;;;;;;;;;;4957886;28;20027;-79
2022/10/06 05:46:24;;;;;;;15.65;11.07;;;;;;;;;;4976498;28;20045;-79
2022/10/06 05:49:02;;;;;;;15.68;10.18;;;;;;;;;;4959475;28;20072;-79
2022/10/06 05:51:30;;;;;;;12.82;9.25;;;;;;;;;;4960883;28;20069;-78
2022/10/06 05:53:57;;;;;;;14.23;9.65;;;;;;;;;;4987865;28;20113;-77
2022/10/06 05:56:22;;;;;;;;;;;;;;;;;;4958437;28;20031;-77
2022/10/06 05:58:49;;;;;;;16.02;9.70;;;;;;;;;;4991778;28;20419;-76
2022/10/06 06:01:15;;;;;;;13.13;10.05;;;;;;;;;;4989073;28;20562;-78
2022/10/06 06:03:45;;;;;;;14.23;9.05;;;;;;;;;;4974030;28;20037;-80
2022/10/06 06:06:18;;;;;;;11.73;9.05;;;;;;;;;;4974685;28;20034;-78
2022/10/06 06:08:44;;;;;;;12.38;9.25;;;;;;;;;;4971945;28;20076;-79
2022/10/06 06:11:09;;;;;;;;;;;;;;;;;;4957641;28;20386;-78
2022/10/06 06:13:35;;;;;;;13.25;9.77;;;;;;;;;;4996420;28;19918;-78
2022/10/06 06:16:06;;;;;;;12.15;9.80;;;;;;;;;;4957736;28;20036;-78
2022/10/06 06:18:33;;;;;;;11.40;10.02;;;;;;;;;;4961866;28;20549;-78
2022/10/06 06:20:59;;;;;;;;;;;;;;;;;;4959049;28;20022;-81
2022/10/06 06:23:24;;;;;;;14.75;10.05;;;;;;;;;;4990752;28;19914;-78
2022/10/06 06:25:57;;;;;;;15.02;10.60;;;;;;;;;;4955971;28;20407;-79
2022/10/06 06:28:22;;;;;;;12.32;9.45;;;;;;;;;;4976107;28;20066;-79
2022/10/06 06:30:49;;;;;;;14.18;10.10;;;;;;;;;;4970675;28;20488;-79
2022/10/06 06:33:14;;;;;;;;;;;;;;;;;;4975125;28;20070;-77
2022/10/06 06:35:40;;;;;;;13.68;9.70;;;;;;;;;;4986241;28;19949;-77
2022/10/06 06:38:08;;;;;;;;;;;;;;;;;;4974394;28;20042;-77
2022/10/06 06:40:38;;;;;;;13.65;10.63;;;;;;;;;;4992512;28;19909;-79
2022/10/06 06:43:05;;;;;;;14.50;10.80;;;;;;;;;;4956389;28;20031;-77
2022/10/06 06:45:37;;;;;;;17.88;10.73;;;;;;;;;;4975350;28;20033;-78
2022/10/06 06:48:21;;;;;;;14.95;9.93;;;;;;;;;;4977813;28;20126;-79
2022/10/06 06:50:47;;;;;;;;;;;;;;;;;;4979793;28;20478;-79
2022/10/06 06:53:13;;;;;;;14.38;9.10;;;;;;;;;;4973434;28;20303;-80
2022/10/06 06:55:48;;;;;;;13.20;9.05;;;;;;;;;;4978242;28;20034;-78
2022/10/06 06:58:14;;;;;;;13.35;9.95;;;;;;;;;;4980332;28;20038;-79
2022/10/06 07:00:40;;;;;;;;;;;;;;;;;;4953637;28;20165;-78
2022/10/06 07:03:06;;;;;;;11.48;9.43;;;;;;;;;;4995072;28;19949;-80
2022/10/06 07:05:33;;;;;;;13.02;9.90;;;;;;;;;;5013401;28;20026;-79
2022/10/06 07:07:59;;;;;;;;;;;;;;;;;;4993807;28;20185;-80
2022/10/06 07:10:26;;;;;;;16.13;9.30;;;;;;;;;;4980869;28;19910;-79
2022/10/06 07:12:52;;;;;;;17.10;10.15;;;;;;;;;;4978743;28;20512;-78
2022/10/06 07:26:39;;;;;;;10.60;8.43;;;;;;;;;;4977268;28;20039;-80
2022/10/06 07:29:04;;;;;;;;;;;;;;;;;;4980903;28;20027;-81
2022/10/06 07:31:32;;;;;;;11.82;8.90;;;;;;;;;;4993470;28;20008;-77
2022/10/06 07:33:58;;;;;;;12.93;9.50;;;;;;;;;;4996508;28;20061;-80
2022/10/06 07:36:24;;;;;;;12.95;9.52;;;;;;;;;;4992901;28;20034;-80
2022/10/06 07:38:49;;;;;;;;;;;;;;;;;;4995819;28;20035;-80
2022/10/06 07:41:15;;;;;;;11.02;9.43;;;;;;;;;;4968561;28;19914;-78
2022/10/06 07:43:42;;;;;;;12.40;8.55;;;;;;;;;;4964371;28;20436;-79
2022/10/06 07:46:08;;;;;;;;;;;;;;;;;;4969451;28;20046;-77
2022/10/06 07:48:37;;;;;;;10.23;8.00;;;;;;;;;;4991887;28;20373;-78
2022/10/06 07:51:05;;;;;;;;;;;;;;;;;;4977677;28;20042;-79
2022/10/06 07:53:36;;;;;;;12.40;7.88;;;;;;;;;;4979353;28;20393;-78
2022/10/06 07:56:14;;;;;;;12.60;7.72;;;;;;;;;;4976543;28;20451;-79
2022/10/06 07:58:44;;;;;;;11.52;7.75;;;;;;;;;;4991686;28;20035;-79
2022/10/06 08:01:09;;;;;;;;;;;;;;;;;;4992059;28;20039;-78
2022/10/06 08:03:38;;;;;;;10.98;7.57;;;;;;;;;;4990520;28;20004;-79
2022/10/06 08:06:04;;;;;;;10.82;8.27;;;;;;;;;;4979391;28;20114;-79
2022/10/06 08:08:29;;;;;;;;;;;;;;;;;;4973181;28;20115;-79
2022/10/06 08:10:55;;;;;;;13.43;8.18;;;;;;;;;;4992126;28;19917;-80
2022/10/06 08:13:21;;;;;;;12.45;7.35;;;;;;;;;;4975988;28;20027;-79
2022/10/06 08:15:48;;;;;;;;;;;;;;;;;;4984410;28;20141;-78
2022/10/06 08:18:14;;;;;;;11.15;6.80;;;;;;;;;;4991064;28;20353;-77
2022/10/06 08:20:39;;;;;;;;;;;;;;;;;;4976135;28;20030;-78
2022/10/06 08:23:07;;;;;;;9.38;7.00;;;;;;;;;;4976427;28;19914;-79
2022/10/06 08:25:35;;;;;;;8.48;6.32;;;;;;;;;;4991504;28;20023;-79
2022/10/06 08:28:00;;;;;;;11.68;6.80;;;;;;;;;;4959660;28;20031;-78
2022/10/06 08:30:26;;;;;;;;;;;;;;;;;;4963383;28;20433;-79
2022/10/06 08:32:51;;;;;;;10.80;6.85;;;;;;;;;;4965684;28;19914;-79
2022/10/06 08:35:17;;;;;;;;;;;;;;;;;;4976705;28;20112;-79
2022/10/06 08:37:42;;;;;;;13.10;8.10;;;;;;;;;;4980170;28;19913;-79
2022/10/06 08:40:09;;;;;;;;;;;;;;;;;;4981577;28;20538;-79
2022/10/06 08:42:34;;;;;;;9.80;6.53;;;;;;;;;;4973537;28;19914;-80
2022/10/06 08:45:00;;;;;;;;;;;;;;;;;;4979043;28;20031;-77
2022/10/06 08:47:29;;;;;;;9.32;6.65;;;;;;;;;;4976319;28;20389;-79
2022/10/06 08:49:55;;;;;;;13.40;6.68;;;;;;;;;;4961154;28;20101;-78
2022/10/06 08:52:25;;;;;;;10.05;6.38;;;;;;;;;;4977261;28;20121;-79
2022/10/06 08:55:00;;;;;;;11.23;7.07;;;;;;;;;;4995031;28;20046;-79
2022/10/06 08:57:28;;;;;;;9.40;7.00;;;;;;;;;;4975600;28;20093;-78
2022/10/06 08:59:54;;;;;;;8.60;6.28;;;;;;;;;;4976268;28;20565;-78
2022/10/06 09:02:19;;;;;;;;;;;;;;;;;;4977897;28;20125;-78
2022/10/06 09:04:47;;;;;;;10.32;7.35;;;;;;;;;;4980409;28;19956;-77
2022/10/06 09:07:14;;;;;;;8.98;6.70;;;;;;;;;;4974186;28;20514;-80
2022/10/06 09:09:58;;;;;;;8.88;6.38;;;;;;;;;;4958038;28;20031;-78
2022/10/06 09:12:31;;;;;;;12.88;6.97;;;;;;;;;;4993706;28;20046;-78
2022/10/06 09:15:15;;;;;;;10.23;6.65;;;;;;;;;;4959419;28;20030;-77
2022/10/06 09:17:42;;;;;;;10.50;7.22;;;;;;;;;;4990671;28;20061;-79
2022/10/06 09:20:19;;;;;;;9.70;6.93;;;;;;;;;;4975251;28;20018;-78
2022/10/06 09:22:45;;;;;;;9.45;6.80;;;;;;;;;;4972164;28;20109;-78
2022/10/06 09:25:19;;;;;;;11.70;7.38;;;;;;;;;;4975197;28;20041;-78
2022/10/06 09:27:49;;;;;;;10.35;6.75;;;;;;;;;;4977046;28;20022;-80
2022/10/06 09:30:15;;;;;;;9.93;6.53;;;;;;;;;;4945138;28;20042;-78
2022/10/06 09:32:40;;;;;;;;;;;;;;;;;;4969102;28;20448;-78
2022/10/06 09:35:19;;;;;;;12.80;7.30;;;;;;;;;;4990175;28;19971;-78
2022/10/06 09:38:11;;;;;;;10.63;7.18;;;;;;;;;;4971000;28;20039;-78
2022/10/06 09:40:37;;;;;;;11.30;6.72;;;;;;;;;;4973834;28;20039;-78
2022/10/06 09:43:03;;;;;;;10.25;6.80;;;;;;;;;;4963593;28;20434;-78
2022/10/06 09:45:30;;;;;;;;;;;;;;;;;;4966564;28;20129;-79
2022/10/06 09:48:04;;;;;;;14.30;7.65;;;;;;;;;;4992258;28;20369;-79
2022/10/06 09:50:29;;;;;;;12.77;6.75;;;;;;;;;;4974754;28;20038;-79
2022/10/06 09:52:54;;;;;;;;;;;;;;;;;;4956945;28;20027;-78
2022/10/06 09:55:21;;;;;;;13.50;6.93;;;;;;;;;;4975142;28;19918;-80
2022/10/06 09:57:50;;;;;;;13.40;7.10;;;;;;;;;;4976727;28;20086;-79
2022/10/06 10:00:25;;;;;;;13.40;6.95;;;;;;;;;;4974893;28;20124;-79
2022/10/06 10:02:58;;;;;;;9.85;6.30;;;;;;;;;;4989788;28;20132;-80
2022/10/06 10:05:24;;;;;;;10.90;6.88;;;;;;;;;;4963588;28;20037;-78
2022/10/06 10:07:49;;;;;;;;;;;;;;;;;;4979391;28;20433;-80
2022/10/06 10:10:18;;;;;;;11.30;6.57;;;;;;;;;;4975872;28;19937;-79
2022/10/06 10:12:49;;;;;;;11.07;6.38;;;;;;;;;;4988907;28;20038;-80
2022/10/06 10:15:18;;;;;;;10.77;6.50;;;;;;;;;;4990071;28;20030;-79
2022/10/06 10:17:46;;;;;;;11.80;6.40;;;;;;;;;;4987612;28;20059;-80
2022/10/06 10:20:21;;;;;;;8.95;6.35;;;;;;;;;;4980854;28;20121;-82
2022/10/06 10:22:46;;;;;;;14.35;6.80;;;;;;;;;;4986842;28;20030;-79
2022/10/06 10:25:12;;;;;;;;;;;;;;;;;;4985411;28;20056;-79
2022/10/06 10:27:50;;;;;;;10.98;6.82;;;;;;;;;;4985520;28;19961;-81
2022/10/06 10:30:16;;;;;;;12.50;6.55;;;;;;;;;;4995605;28;20413;-79
2022/10/06 10:32:41;;;;;;;;;;;;;;;;;;4968155;28;20038;-79
2022/10/06 10:35:12;;;;;;;11.32;6.25;;;;;;;;;;4975380;28;19926;-79
2022/10/06 10:37:57;;;;;;;10.43;6.47;;;;;;;;;;4971400;28;20035;-80
2022/10/06 10:40:36;;;;;;;10.35;6.22;;;;;;;;;;4980209;28;20050;-78
2022/10/06 10:43:09;;;;;;;9.77;6.40;;;;;;;;;;4966637;28;20035;-81
2022/10/06 10:45:35;;;;;;;11.68;6.30;;;;;;;;;;4974923;28;20049;-79
2022/10/06 10:48:00;;;;;;;;;;;;;;;;;;4976877;28;20034;-79
2022/10/06 10:50:58;;;;;;;12.45;6.95;;;;;;;;;;4991550;28;20407;-79
2022/10/06 10:53:30;;;;;;;9.35;6.13;;;;;;;;;;4948631;28;20058;-80
2022/10/06 10:55:55;;;;;;;15.50;6.82;;;;;;;;;;4984856;28;20045;-80
2022/10/06 10:58:21;;;;;;;;;;;;;;;;;;4974904;28;20031;-79
2022/10/06 11:00:48;;;;;;;12.30;7.13;;;;;;;;;;4974281;28;20038;-79
2022/10/06 11:03:13;;;;;;;11.20;7.40;;;;;;;;;;4975567;28;20018;-81
2022/10/06 11:05:38;;;;;;;;;;;;;;;;;;4983469;28;20410;-81
2022/10/06 11:08:08;;;;;;;14.55;8.00;;;;;;;;;;4979388;28;19914;-82
2022/10/06 11:10:36;;;;;;;14.30;7.85;;;;;;;;;;4975951;28;20043;-82
2022/10/06 11:13:17;;;;;;;14.10;7.38;;;;;;;;;;4955931;28;20524;-83
2022/10/06 11:15:42;;;;;;;19.00;7.65;;;;;;;;;;4991692;28;20390;-79
2022/10/06 11:18:08;;;;;;;;;;;;;;;;;;4976024;28;20018;-79
2022/10/06 11:20:36;;;;;;;14.07;7.90;;;;;;;;;;4989073;28;19918;-78
2022/10/06 11:23:05;;;;;;;11.52;7.25;;;;;;;;;;4973390;28;20022;-80
2022/10/06 11:25:39;;;;;;;12.38;7.80;;;;;;;;;;4981561;28;20553;-80
2022/10/06 11:28:19;;;;;;;14.13;8.05;;;;;;;;;;4977930;28;20046;-79
2022/10/06 11:31:08;;;;;;;14.25;8.20;;;;;;;;;;4979154;28;20034;-79
2022/10/06 11:33:36;;;;;;;12.43;7.80;;;;;;;;;;4973185;28;20090;-79
2022/10/06 11:36:02;;;;;;;15.00;8.65;;;;;;;;;;4977180;28;20030;-80
2022/10/06 11:38:31;;;;;;;15.32;7.75;;;;;;;;;;4968286;28;20034;-78
2022/10/06 11:41:06;;;;;;;12.50;7.30;;;;;;;;;;4972108;28;20030;-79
2022/10/06 11:43:38;;;;;;;13.00;7.68;;;;;;;;;;4970821;28;20176;-80
2022/10/06 11:46:06;;;;;;;11.32;7.45;;;;;;;;;;4956092;28;20046;-83
2022/10/06 11:48:32;;;;;;;13.43;7.80;;;;;;;;;;4991215;28;20041;-81
2022/10/06 11:50:57;;;;;;;;;;;;;;;;;;4959703;28;20031;-79
2022/10/06 11:53:35;;;;;;;14.07;7.57;;;;;;;;;;4979124;28;19913;-78
2022/10/06 11:56:16;;;;;;;11.85;7.28;;;;;;;;;;4966632;28;20038;-79
2022/10/06 11:59:01;;;;;;;11.00;7.35;;;;;;;;;;4971037;28;20545;-78
2022/10/06 12:01:26;;;;;;;16.90;8.70;;;;;;;;;;4974347;28;20054;-78
2022/10/06 12:03:52;;;;;;;;;;;;;;;;;;4978105;28;20030;-79
2022/10/06 12:06:36;;;;;;;10.95;8.20;;;;;;;;;;4979073;28;19961;-79
2022/10/06 12:09:10;;;;;;;14.93;8.65;;;;;;;;;;4965076;28;20051;-78
2022/10/06 12:11:36;;;;;;;12.98;8.35;;;;;;;;;;4957917;28;20074;-81
2022/10/06 12:14:02;;;;;;;;;;;;;;;;;;4965948;28;20118;-77
2022/10/06 12:16:30;;;;;;;13.55;7.78;;;;;;;;;;4981485;28;20062;-79
2022/10/06 12:18:58;;;;;;;11.32;8.13;;;;;;;;;;4960743;28;20162;-80
2022/10/06 12:21:36;;;;;;;11.25;7.90;;;;;;;;;;4975019;28;20058;-80
2022/10/06 12:24:16;;;;;;;14.98;8.43;;;;;;;;;;4986855;28;20049;-80
2022/10/06 12:26:42;;;;;;;14.82;8.10;;;;;;;;;;4945057;28;20043;-79
2022/10/06 12:29:07;;;;;;;;;;;;;;;;;;4980944;28;20030;-79
2022/10/06 12:31:42;;;;;;;13.93;8.52;;;;;;;;;;4960393;28;19921;-78
2022/10/06 12:34:27;;;;;;;12.80;8.40;;;;;;;;;;4978120;28;20059;-79
2022/10/06 12:37:12;;;;;;;12.38;7.90;;;;;;;;;;4979809;28;20122;-79
2022/10/06 12:39:38;;;;;;;15.55;8.27;;;;;;;;;;4967713;28;20039;-79
2022/10/06 12:42:03;;;;;;;;;;;;;;;;;;4969482;28;20035;-80
2022/10/06 12:44:32;;;;;;;11.63;9.02;;;;;;;;;;4960348;28;19914;-79
2022/10/06 12:46:59;;;;;;;14.13;8.73;;;;;;;;;;4969256;28;20034;-79
2022/10/06 12:49:25;;;;;;;12.55;8.48;;;;;;;;;;4949286;28;20487;-80
2022/10/06 12:51:50;;;;;;;;;;;;;;;;;;4974157;28;20089;-79
2022/10/06 12:54:36;;;;;;;12.68;8.68;;;;;;;;;;4969359;28;20377;-82
2022/10/06 12:57:12;;;;;;;13.32;8.00;;;;;;;;;;4957029;28;20031;-79
2022/10/06 12:59:39;;;;;;;;;;;;;;;;;;4944057;28;20086;-80
2022/10/06 13:02:08;;;;;;;10.25;8.60;;;;;;;;;;4977832;28;19918;-80
2022/10/06 13:04:35;;;;;;;11.50;8.20;;;;;;;;;;4959189;28;20506;-80
2022/10/06 13:07:16;;;;;;;13.23;8.70;;;;;;;;;;4992153;28;20026;-79
2022/10/06 13:09:41;;;;;;;10.50;8.32;;;;;;;;;;4961321;28;20045;-79
2022/10/06 13:12:07;;;;;;;;;;;;;;;;;;4965549;28;20395;-78
2022/10/06 13:14:32;;;;;;;11.80;8.45;;;;;;;;;;4991996;28;19922;-80
2022/10/06 13:16:58;;;;;;;;;;;;;;;;;;4965947;28;20030;-81
2022/10/06 13:19:24;;;;;;;12.32;8.35;;;;;;;;;;4962260;28;19946;-80
2022/10/06 13:21:50;;;;;;;12.00;9.02;;;;;;;;;;4963997;28;20529;-79
2022/10/06 13:24:18;;;;;;;;;;;;;;;;;;4972973;28;20126;-80
2022/10/06 13:26:43;;;;;;;9.32;7.68;;;;;;;;;;4973867;28;19965;-79
2022/10/06 13:29:09;;;;;;;;;;;;;;;;;;4973597;28;20043;-81
2022/10/06 13:31:35;;;;;;;12.20;7.43;;;;;;;;;;4967543;28;19917;-79
2022/10/06 13:34:10;;;;;;;10.98;7.05;;;;;;;;;;4968229;28;20051;-77
2022/10/06 13:36:37;;;;;;;13.35;7.57;;;;;;;;;;4973711;28;20554;-79
2022/10/06 13:39:03;;;;;;;10.48;7.47;;;;;;;;;;4959524;28;20073;-78
2022/10/06 13:41:29;;;;;;;9.90;7.13;;;;;;;;;;4975757;28;20545;-82
2022/10/06 13:43:58;;;;;;;9.93;7.03;;;;;;;;;;4943265;28;20018;-80
2022/10/06 13:46:24;;;;;;;9.65;7.18;;;;;;;;;;4977643;28;20046;-80
2022/10/06 13:48:51;;;;;;;10.68;8.50;;;;;;;;;;4969687;28;20027;-80
2022/10/06 13:51:18;;;;;;;10.68;7.63;;;;;;;;;;4959110;28;20039;-79
2022/10/06 13:53:43;;;;;;;12.35;8.10;;;;;;;;;;4975665;28;20145;-79
2022/10/06 13:56:09;;;;;;;;;;;;;;;;;;4983140;28;20119;-78
2022/10/06 13:58:35;;;;;;;16.42;8.43;;;;;;;;;;4974603;28;20343;-82
2022/10/06 14:01:00;;;;;;;;;;;;;;;;;;4966571;28;20102;-79
2022/10/06 14:03:27;;;;;;;14.25;8.70;;;;;;;;;;4978362;28;19948;-79
2022/10/06 14:06:13;;;;;;;11.68;8.85;;;;;;;;;;4976676;28;20038;-79
2022/10/06 14:08:38;;;;;;;12.98;8.00;;;;;;;;;;4974935;28;20498;-79
2022/10/06 14:11:04;;;;;;;;;;;;;;;;;;4979825;28;20031;-80
2022/10/06 14:13:29;;;;;;;13.15;9.15;;;;;;;;;;4960979;28;19913;-79
2022/10/06 14:15:55;;;;;;;;;;;;;;;;;;4973148;28;20031;-79
2022/10/06 14:18:39;;;;;;;13.77;9.55;;;;;;;;;;4959920;28;19914;-80
2022/10/06 14:21:23;;;;;;;19.35;10.43;;;;;;;;;;4988030;28;20118;-81
2022/10/06 14:23:49;;;;;;;13.73;9.38;;;;;;;;;;4977235;28;20068;-82
2022/10/06 14:26:14;;;;;;;;;;;;;;;;;;4974397;28;20030;-78
2022/10/06 14:28:44;;;;;;;13.65;9.70;;;;;;;;;;4965931;28;20051;-80
2022/10/06 14:31:10;;;;;;;17.48;9.55;;;;;;;;;;4959351;28;20042;-80
2022/10/06 14:33:35;;;;;;;;;;;;;;;;;;4973404;28;20055;-78
2022/10/06 14:36:01;;;;;;;16.48;9.02;;;;;;;;;;4959975;28;19915;-79
2022/10/06 14:38:27;;;;;;;15.60;9.25;;;;;;;;;;4960696;28;20023;-79
2022/10/06 14:40:52;;;;;;;;;;;;;;;;;;4965027;28;20034;-79
2022/10/06 14:43:18;;;;;;;13.23;9.40;;;;;;;;;;4970077;28;19942;-79
2022/10/06 14:45:43;;;;;;;;;;;;;;;;;;4969965;28;20027;-81
2022/10/06 14:48:09;;;;;;;12.73;9.65;;;;;;;;;;4988497;28;19914;-77
2022/10/06 14:50:34;;;;;;;;;;;;;;;;;;4967317;28;20022;-79
2022/10/06 14:53:00;;;;;;;15.98;10.23;;;;;;;;;;4980146;28;19921;-78
2022/10/06 14:55:29;;;;;;;;;;;;;;;;;;4968154;28;20035;-79
2022/10/06 14:57:57;;;;;;;13.65;10.40;;;;;;;;;;4970896;28;19918;-78
2022/10/06 15:00:23;;;;;;;14.55;11.02;;;;;;;;;;4969943;28;20018;-80
2022/10/06 15:02:49;;;;;;;;;;;;;;;;;;4978055;28;20041;-79
2022/10/06 15:05:14;;;;;;;14.57;10.98;;;;;;;;;;4981084;28;19910;-80
2022/10/06 15:10:24;;;;;;;14.25;11.30;;;;;;;;;;4970772;28;19982;-81
2022/10/06 15:12:51;;;;;;;;;;;;;;;;;;4972538;28;20050;-79
2022/10/06 15:15:17;;;;;;;19.58;12.15;;;;;;;;;;4962373;28;20339;-80
2022/10/06 15:17:42;;;;;;;;;;;;;;;;;;4967203;28;20403;-79